createdAt,value
2022-12-03T00:03:03.585Z,84.88
2022-12-03T00:08:06.991Z,84.93
2022-12-03T00:13:10.335Z,84.92
2022-12-03T00:18:13.543Z,84.93
2022-12-03T00:23:16.957Z,85.09
2022-12-03T00:28:20.367Z,85.17
2022-12-03T00:33:23.578Z,85.10
2022-12-03T00:38:26.890Z,85.16
2022-12-03T00:43:30.196Z,85.20
2022-12-03T00:48:33.404Z,85.46
2022-12-03T00:53:36.610Z,85.71
2022-12-03T00:58:40.333Z,86.02
2022-12-03T01:03:43.436Z,86.12
2022-12-03T01:08:46.644Z,86.23
2022-12-03T01:13:49.752Z,86.43
2022-12-03T01:18:53.368Z,86.58
2022-12-03T01:23:56.983Z,86.80
2022-12-03T01:28:59.993Z,86.88
2022-12-03T01:34:03.299Z,86.82
2022-12-03T01:39:06.608Z,86.86
2022-12-03T01:44:25.016Z,86.85
2022-12-03T01:49:44.460Z,86.79
2022-12-03T01:54:59.547Z,86.72
2022-12-03T02:00:04.773Z,86.64
2022-12-03T02:05:19.734Z,86.50
2022-12-03T02:10:32.736Z,86.57
2022-12-03T02:15:40.387Z,86.65
2022-12-03T02:21:13.445Z,86.81
2022-12-03T02:26:16.960Z,86.71
2022-12-03T02:31:20.132Z,86.62
2022-12-03T02:36:24.192Z,86.67
2022-12-03T02:41:53.819Z,86.76
2022-12-03T02:46:57.101Z,86.61
2022-12-03T02:52:00.543Z,86.13
2022-12-03T02:57:04.364Z,85.98
2022-12-03T03:02:11.778Z,85.84
2022-12-03T03:07:16.003Z,85.75
2022-12-03T03:12:19.311Z,85.62
2022-12-03T03:17:22.519Z,85.18
2022-12-03T03:22:35.251Z,84.80
2022-12-03T03:27:40.405Z,84.80
2022-12-03T03:32:43.922Z,84.82
2022-12-03T03:37:47.127Z,84.84
2022-12-03T03:42:50.640Z,84.71
2022-12-03T03:47:54.979Z,84.79
2022-12-03T03:52:59.825Z,85.01
2022-12-03T03:58:03.134Z,85.02
2022-12-03T04:03:07.265Z,85.06
2022-12-03T04:08:10.570Z,85.01
2022-12-03T04:13:13.882Z,85.02
2022-12-03T04:18:35.829Z,85.03
2022-12-03T04:23:39.243Z,85.18
2022-12-03T04:28:51.158Z,85.22
2022-12-03T04:34:12.895Z,85.21
2022-12-03T04:39:16.103Z,85.29
2022-12-03T04:44:36.589Z,85.40
2022-12-03T04:49:42.764Z,85.55
2022-12-03T04:54:46.309Z,85.54
2022-12-03T04:59:49.835Z,85.52
2022-12-03T05:04:53.129Z,85.63
2022-12-03T05:09:56.446Z,85.92
2022-12-03T05:14:59.548Z,86.19
2022-12-03T05:20:21.805Z,86.35
2022-12-03T05:25:25.421Z,86.52
2022-12-03T05:30:28.814Z,86.66
2022-12-03T05:35:32.453Z,86.71
2022-12-03T05:40:35.964Z,86.51
2022-12-03T05:45:41.206Z,86.18
2022-12-03T05:50:46.397Z,86.08
2022-12-03T05:55:49.480Z,86.06
2022-12-03T06:00:52.890Z,86.08
2022-12-03T06:05:56.615Z,86.21
2022-12-03T06:11:00.025Z,86.33
2022-12-03T06:16:03.537Z,86.32
2022-12-03T06:21:07.052Z,86.31
2022-12-03T06:26:14.562Z,86.24
2022-12-03T06:31:18.128Z,86.15
2022-12-03T06:36:23.444Z,85.97
2022-12-03T06:41:27.053Z,85.64
2022-12-03T06:46:30.633Z,85.45
2022-12-03T06:51:33.883Z,85.60
2022-12-03T06:56:43.521Z,85.36
2022-12-03T07:01:48.648Z,84.99
2022-12-03T07:06:52.409Z,84.97
2022-12-03T07:11:55.727Z,85.18
2022-12-03T07:16:59.973Z,85.36
2022-12-03T07:22:03.894Z,85.49
2022-12-03T07:27:07.809Z,85.51
2022-12-03T07:32:11.012Z,85.52
2022-12-03T07:37:16.591Z,85.72
2022-12-03T07:42:22.055Z,85.76
2022-12-03T07:47:25.142Z,85.62
2022-12-03T07:52:28.659Z,85.68
2022-12-03T07:57:31.965Z,85.44
2022-12-03T08:02:35.480Z,85.48
2022-12-03T08:07:38.915Z,85.63
2022-12-03T08:12:42.618Z,85.66
2022-12-03T08:17:52.374Z,85.46
2022-12-03T08:22:57.764Z,85.50
2022-12-03T08:28:19.016Z,85.68
2022-12-03T08:33:35.735Z,85.79
2022-12-03T08:38:39.200Z,85.86
2022-12-03T08:43:44.106Z,86.07
2022-12-03T08:48:49.474Z,86.26
2022-12-03T08:54:01.911Z,86.30
2022-12-03T08:59:14.459Z,86.12
2022-12-03T09:04:36.643Z,85.95
2022-12-03T09:09:44.142Z,85.64
2022-12-03T09:14:47.849Z,85.41
2022-12-03T09:19:51.455Z,85.44
2022-12-03T09:24:55.923Z,85.42
2022-12-03T09:29:59.202Z,85.78
2022-12-03T09:35:02.410Z,86.20
2022-12-03T09:40:08.218Z,86.29
2022-12-03T09:45:15.013Z,85.89
2022-12-03T09:50:24.687Z,86.29
2022-12-03T09:55:29.269Z,86.23
2022-12-03T10:00:32.375Z,85.91
2022-12-03T10:05:35.578Z,85.50
2022-12-03T10:10:42.375Z,85.32
2022-12-03T10:15:45.786Z,85.60
2022-12-03T10:20:50.019Z,85.53
2022-12-03T10:26:03.857Z,85.51
2022-12-03T10:31:12.249Z,85.31
2022-12-03T10:36:15.512Z,85.31
2022-12-03T10:41:23.325Z,85.21
2022-12-03T10:46:27.054Z,84.58
2022-12-03T10:51:31.640Z,84.60
2022-12-03T10:56:36.610Z,84.43
2022-12-03T11:01:40.912Z,84.47
2022-12-03T11:06:45.206Z,84.85
2022-12-03T11:11:50.197Z,85.04
2022-12-03T11:17:09.076Z,85.14
2022-12-03T11:22:19.853Z,85.05
2022-12-03T11:27:24.799Z,85.01
2022-12-03T11:32:44.746Z,84.99
2022-12-03T11:37:52.002Z,85.36
2022-12-03T11:42:57.828Z,85.51
2022-12-03T11:48:14.687Z,85.59
2022-12-03T11:53:25.122Z,85.73
2022-12-03T11:58:31.751Z,85.67
2022-12-03T12:03:48.250Z,85.65
2022-12-03T12:08:53.299Z,85.81
2022-12-03T12:14:12.304Z,86.02
2022-12-03T12:19:29.011Z,85.73
2022-12-03T12:24:51.935Z,85.87
2022-12-03T12:30:20.516Z,85.90
2022-12-03T12:35:27.871Z,85.70
2022-12-03T12:40:34.995Z,85.53
2022-12-03T12:45:42.034Z,85.59
2022-12-03T12:50:49.418Z,85.91
2022-12-03T12:56:01.615Z,86.06
2022-12-03T13:01:12.248Z,86.03
2022-12-03T13:06:17.886Z,85.69
2022-12-03T13:11:37.777Z,85.33
2022-12-03T13:16:43.316Z,84.70
2022-12-03T13:21:48.915Z,83.50
2022-12-03T13:26:54.084Z,83.00
2022-12-03T13:32:13.402Z,82.56
2022-12-03T13:37:26.680Z,82.48
2022-12-03T13:42:42.288Z,82.76
2022-12-03T13:48:25.296Z,83.23
2022-12-03T13:53:38.739Z,83.63
2022-12-03T13:58:41.845Z,83.90
2022-12-03T14:03:45.470Z,84.12
2022-12-03T14:08:49.075Z,84.48
2022-12-03T14:13:52.488Z,84.69
2022-12-03T14:18:55.489Z,85.09
2022-12-03T14:23:58.696Z,85.34
2022-12-03T14:29:05.977Z,85.49
2022-12-03T14:34:13.103Z,85.71
2022-12-03T14:39:16.211Z,85.73
2022-12-03T14:44:21.975Z,85.96
2022-12-03T14:49:26.309Z,86.13
2022-12-03T14:54:29.728Z,86.21
2022-12-03T14:59:32.858Z,86.14
2022-12-03T15:04:35.933Z,86.22
2022-12-03T15:09:39.245Z,86.31
2022-12-03T15:14:43.597Z,86.37
2022-12-03T15:19:46.692Z,86.51
2022-12-03T15:24:50.300Z,86.73
2022-12-03T15:29:54.070Z,86.82
2022-12-03T15:34:57.537Z,87.02
2022-12-03T15:40:00.744Z,87.13
2022-12-03T15:45:05.284Z,87.11
2022-12-03T15:50:10.351Z,87.21
2022-12-03T15:55:13.955Z,87.14
2022-12-03T16:00:18.823Z,87.17
2022-12-03T16:05:22.421Z,87.18
2022-12-03T16:10:25.840Z,87.13
2022-12-03T16:15:29.447Z,87.26
2022-12-03T16:20:32.552Z,87.26
2022-12-03T16:25:35.655Z,87.34
2022-12-03T16:31:02.815Z,87.35
2022-12-03T16:36:34.391Z,87.43
2022-12-03T16:41:37.922Z,87.50
2022-12-03T16:46:41.394Z,87.49
2022-12-03T16:51:44.741Z,87.61
2022-12-03T16:56:47.752Z,87.75
2022-12-03T17:01:51.315Z,87.80
2022-12-03T17:06:54.680Z,87.82
2022-12-03T17:11:57.982Z,87.94
2022-12-03T17:17:01.290Z,88.13
2022-12-03T17:22:04.704Z,88.22
2022-12-03T17:27:08.319Z,88.28
2022-12-03T17:32:11.631Z,88.36
2022-12-03T17:37:17.091Z,88.40
2022-12-03T17:42:20.504Z,88.43
2022-12-03T17:47:23.610Z,88.52
2022-12-03T17:52:26.923Z,88.74
2022-12-03T17:57:30.546Z,89.00
2022-12-03T18:02:33.861Z,89.28
2022-12-03T18:07:37.094Z,89.57
2022-12-03T18:12:40.368Z,89.82
2022-12-03T18:17:43.884Z,89.96
2022-12-03T18:22:47.198Z,90.07
2022-12-03T18:27:51.015Z,90.17
2022-12-03T18:32:54.849Z,90.16
2022-12-03T18:37:58.455Z,90.14
2022-12-03T18:43:02.895Z,90.16
2022-12-03T18:48:17.025Z,90.22
2022-12-03T18:53:20.264Z,90.32
2022-12-03T18:58:23.475Z,90.33
2022-12-03T19:03:26.949Z,90.45
2022-12-03T19:08:30.197Z,90.56
2022-12-03T19:13:33.300Z,90.67
2022-12-03T19:18:37.025Z,90.72
2022-12-03T19:23:40.938Z,90.78
2022-12-03T19:28:44.222Z,90.83
2022-12-03T19:33:48.387Z,90.89
2022-12-03T19:38:57.114Z,90.92
2022-12-03T19:44:02.258Z,90.99
2022-12-03T19:49:08.046Z,91.09
2022-12-03T19:54:12.275Z,91.12
2022-12-03T19:59:15.687Z,91.20
2022-12-03T20:04:20.862Z,91.22
2022-12-03T20:09:24.152Z,91.26
2022-12-03T20:14:28.588Z,91.32
2022-12-03T20:19:31.804Z,91.37
2022-12-03T20:24:35.236Z,91.41
2022-12-03T20:29:38.940Z,91.42
2022-12-03T20:34:44.704Z,91.43
2022-12-03T20:39:51.450Z,91.44
2022-12-03T20:44:55.827Z,91.43
2022-12-03T20:49:59.555Z,91.40
2022-12-03T20:55:02.781Z,91.37
2022-12-03T21:00:07.193Z,91.36
2022-12-03T21:05:11.634Z,91.37
2022-12-03T21:10:33.983Z,91.37
2022-12-03T21:15:37.810Z,91.38
2022-12-03T21:20:47.384Z,91.37
2022-12-03T21:25:50.569Z,91.31
2022-12-03T21:30:53.728Z,91.25
2022-12-03T21:35:57.604Z,91.10
2022-12-03T21:41:01.935Z,91.01
2022-12-03T21:47:11.156Z,90.98
2022-12-03T21:51:33.843Z,91.00
2022-12-03T21:56:37.466Z,90.96
2022-12-03T22:01:45.570Z,90.93
2022-12-03T22:06:50.334Z,90.86
2022-12-03T22:11:55.690Z,90.89
2022-12-03T22:16:59.410Z,90.89
2022-12-03T22:22:03.882Z,90.92
2022-12-03T22:27:07.463Z,90.92
2022-12-03T22:32:10.873Z,90.84
2022-12-03T22:37:14.198Z,90.80
2022-12-03T22:42:17.708Z,90.85
2022-12-03T22:47:21.429Z,90.84
2022-12-03T22:52:24.529Z,90.88
2022-12-03T22:57:27.737Z,90.86
2022-12-03T23:02:30.883Z,90.83
2022-12-03T23:07:35.127Z,90.85
2022-12-03T23:12:38.590Z,90.87
2022-12-03T23:17:42.309Z,90.86
2022-12-03T23:22:45.311Z,90.91
2022-12-03T23:27:49.032Z,90.94
2022-12-03T23:32:52.754Z,90.98
2022-12-03T23:37:55.873Z,91.08
2022-12-03T23:42:59.271Z,91.24
2022-12-03T23:48:02.581Z,91.42
2022-12-03T23:53:05.684Z,91.57
2022-12-03T23:58:08.897Z,91.74
